sensor_id;sensor_type;location;lat;lon;timestamp;pressure;altitude;pressure_sealevel;temperature;humidity
22775;BME280;11554;51.106;3.684;2022-09-01T00:00:00;101978.54999999999;;;17.94;75.47
22775;BME280;11554;51.106;3.684;2022-09-01T00:05:00;101976.85;;;17.79;75.66
22775;BME280;11554;51.106;3.684;2022-09-01T00:10:00;101978.34;;;17.64;75.74
22775;BME280;11554;51.106;3.684;2022-09-01T00:15:00;101979.35;;;17.49;75.93
22775;BME280;11554;51.106;3.684;2022-09-01T00:20:00;101980.44;;;17.38;75.97
22775;BME280;11554;51.106;3.684;2022-09-01T00:25:00;101978.47;;;17.27;75.77
22775;BME280;11554;51.106;3.684;2022-09-01T00:30:00;101981.14;;;17.14;76.07
22775;BME280;11554;51.106;3.684;2022-09-01T00:35:00;101983.15;;;17.03;76.21
22775;BME280;11554;51.106;3.684;2022-09-01T00:40:00;101982.15;;;16.91;76.25
22775;BME280;11554;51.106;3.684;2022-09-01T00:45:00;101975.21;;;16.82;76.41
22775;BME280;11554;51.106;3.684;2022-09-01T00:50:00;101973.67;;;16.75;76.62
22775;BME280;11554;51.106;3.684;2022-09-01T00:55:01;101970.48;;;16.71;76.88
22775;BME280;11554;51.106;3.684;2022-09-01T01:00:03;101965.97;;;16.70;76.88
22775;BME280;11554;51.106;3.684;2022-09-01T01:05:00;101963.67;;;16.70;76.92
22775;BME280;11554;51.106;3.684;2022-09-01T01:10:00;101961.58;;;16.71;76.84
22775;BME280;11554;51.106;3.684;2022-09-01T01:15:00;101965.97;;;16.72;76.44
22775;BME280;11554;51.106;3.684;2022-09-01T01:20:00;101966.37;;;16.72;76.02
22775;BME280;11554;51.106;3.684;2022-09-01T01:25:00;101967.52;;;16.72;75.66
22775;BME280;11554;51.106;3.684;2022-09-01T01:30:00;101966.26;;;16.73;75.34
22775;BME280;11554;51.106;3.684;2022-09-01T01:35:00;101961.47;;;16.73;74.97
22775;BME280;11554;51.106;3.684;2022-09-01T01:40:00;101963.09;;;16.74;74.71
22775;BME280;11554;51.106;3.684;2022-09-01T01:45:00;101964.67;;;16.75;74.8
22775;BME280;11554;51.106;3.684;2022-09-01T01:50:00;101965.42;;;16.75;75.03
22775;BME280;11554;51.106;3.684;2022-09-01T01:55:00;101964.62;;;16.74;74.32
22775;BME280;11554;51.106;3.684;2022-09-01T02:00:00;101964.31;;;16.78;73.52
22775;BME280;11554;51.106;3.684;2022-09-01T02:05:00;101964.26;;;16.87;72.59
22775;BME280;11554;51.106;3.684;2022-09-01T02:10:00;101958.75;;;16.97;71.45
22775;BME280;11554;51.106;3.684;2022-09-01T02:15:00;101961.69;;;17.03;70.41
22775;BME280;11554;51.106;3.684;2022-09-01T02:20:00;101959.59;;;17.05;70.06
22775;BME280;11554;51.106;3.684;2022-09-01T02:25:00;101960.14;;;17.05;69.7
22775;BME280;11554;51.106;3.684;2022-09-01T02:30:00;101950.51;;;17.05;69.52
22775;BME280;11554;51.106;3.684;2022-09-01T02:35:00;101947.29999999999;;;17.02;69.63
22775;BME280;11554;51.106;3.684;2022-09-01T02:40:00;101945.98999999999;;;17.01;69.67
22775;BME280;11554;51.106;3.684;2022-09-01T02:45:00;101945.4;;;17.00;69.65
22775;BME280;11554;51.106;3.684;2022-09-01T02:50:00;101948.63;;;17.00;69.69
22775;BME280;11554;51.106;3.684;2022-09-01T02:55:00;101950.62000000001;;;17.00;69.67
22775;BME280;11554;51.106;3.684;2022-09-01T03:00:00;101946.55;;;17.02;69.79
22775;BME280;11554;51.106;3.684;2022-09-01T03:05:00;101941.02;;;17.01;70.21
22775;BME280;11554;51.106;3.684;2022-09-01T03:10:00;101939.03;;;16.98;70.42
22775;BME280;11554;51.106;3.684;2022-09-01T03:15:00;101938.98000000001;;;16.95;70.59
22775;BME280;11554;51.106;3.684;2022-09-01T03:20:00;101937.45;;;16.91;70.91
22775;BME280;11554;51.106;3.684;2022-09-01T03:25:00;101935.14;;;16.88;71.28
22775;BME280;11554;51.106;3.684;2022-09-01T03:30:00;101932.06;;;16.82;71.59
22775;BME280;11554;51.106;3.684;2022-09-01T03:35:00;101932.19;;;16.76;71.99
22775;BME280;11554;51.106;3.684;2022-09-01T03:40:00;101934.11;;;16.67;72.44
22775;BME280;11554;51.106;3.684;2022-09-01T03:45:00;101929.69;;;16.60;72.78
22775;BME280;11554;51.106;3.684;2022-09-01T03:50:00;101934.81;;;16.47;73.53
22775;BME280;11554;51.106;3.684;2022-09-01T03:55:00;101928.36;;;16.39;73.83
22775;BME280;11554;51.106;3.684;2022-09-01T04:00:00;101932.23000000001;;;16.33;74.11
22775;BME280;11554;51.106;3.684;2022-09-01T04:05:00;101931.15000000001;;;16.22;74.56
22775;BME280;11554;51.106;3.684;2022-09-01T04:10:00;101927.95999999999;;;16.13;74.93
22775;BME280;11554;51.106;3.684;2022-09-01T04:15:00;101928.49;;;16.02;75.69
22775;BME280;11554;51.106;3.684;2022-09-01T04:20:00;101932.14;;;15.84;77.17
22775;BME280;11554;51.106;3.684;2022-09-01T04:25:00;101931.42;;;15.65;78.46
22775;BME280;11554;51.106;3.684;2022-09-01T04:30:00;101936.67;;;15.50;79.15
22775;BME280;11554;51.106;3.684;2022-09-01T04:35:00;101939.23;;;15.37;79.75
22775;BME280;11554;51.106;3.684;2022-09-01T04:40:00;101938.62000000001;;;15.31;80.15
22775;BME280;11554;51.106;3.684;2022-09-01T04:45:00;101937.11;;;15.28;79.94
22775;BME280;11554;51.106;3.684;2022-09-01T04:50:00;101934.84;;;15.22;80.05
22775;BME280;11554;51.106;3.684;2022-09-01T04:55:00;101930.5;;;15.18;80.68
22775;BME280;11554;51.106;3.684;2022-09-01T05:00:00;101927.11;;;15.10;81.14
22775;BME280;11554;51.106;3.684;2022-09-01T05:05:00;101918.66;;;15.08;81.61
22775;BME280;11554;51.106;3.684;2022-09-01T05:10:00;101915.0;;;15.03;82.02
22775;BME280;11554;51.106;3.684;2022-09-01T05:15:00;101913.65;;;15.04;82.63
22775;BME280;11554;51.106;3.684;2022-09-01T05:20:00;101916.11;;;15.01;82.69
22775;BME280;11554;51.106;3.684;2022-09-01T05:25:00;101922.66;;;15.01;82.73
22775;BME280;11554;51.106;3.684;2022-09-01T05:30:00;101926.19;;;15.03;82.94
22775;BME280;11554;51.106;3.684;2022-09-01T05:35:00;101926.05;;;15.03;83.21
22775;BME280;11554;51.106;3.684;2022-09-01T05:40:00;101923.95;;;15.25;84.85
22775;BME280;11554;51.106;3.684;2022-09-01T05:45:00;101924.15999999999;;;15.85;83.42
22775;BME280;11554;51.106;3.684;2022-09-01T05:50:00;101929.1;;;16.30;82.07
22775;BME280;11554;51.106;3.684;2022-09-01T05:55:00;101928.09;;;16.79;80.42
22775;BME280;11554;51.106;3.684;2022-09-01T06:00:00;101925.94;;;17.27;79.37
22775;BME280;11554;51.106;3.684;2022-09-01T06:05:00;101925.67;;;17.62;77.26
22775;BME280;11554;51.106;3.684;2022-09-01T06:10:00;101925.16;;;17.82;75.44
22775;BME280;11554;51.106;3.684;2022-09-01T06:15:00;101923.35;;;18.15;73.99
22775;BME280;11554;51.106;3.684;2022-09-01T06:20:00;101926.01;;;18.56;73.95
22775;BME280;11554;51.106;3.684;2022-09-01T06:25:00;101923.58;;;18.92;70.43
22775;BME280;11554;51.106;3.684;2022-09-01T06:30:00;101924.37;;;18.82;69.95
22775;BME280;11554;51.106;3.684;2022-09-01T06:35:00;101923.24;;;19.01;70.22
22775;BME280;11554;51.106;3.684;2022-09-01T06:40:00;101921.57999999999;;;19.03;68.27
22775;BME280;11554;51.106;3.684;2022-09-01T06:45:00;101924.87;;;19.00;68.06
22775;BME280;11554;51.106;3.684;2022-09-01T06:50:00;101927.37;;;19.14;69.2
22775;BME280;11554;51.106;3.684;2022-09-01T06:55:00;101930.17;;;19.63;66.48
22775;BME280;11554;51.106;3.684;2022-09-01T07:00:00;101939.65;;;19.39;66.81
22775;BME280;11554;51.106;3.684;2022-09-01T07:05:00;101937.25;;;19.61;67.22
22775;BME280;11554;51.106;3.684;2022-09-01T07:10:00;101939.76;;;19.51;66.62
22775;BME280;11554;51.106;3.684;2022-09-01T07:15:00;101941.95999999999;;;19.62;67.02
22775;BME280;11554;51.106;3.684;2022-09-01T07:20:00;101947.77;;;20.22;66.53
22775;BME280;11554;51.106;3.684;2022-09-01T07:25:00;101953.03;;;20.64;65.42
22775;BME280;11554;51.106;3.684;2022-09-01T07:30:00;101956.47;;;20.76;65.75
22775;BME280;11554;51.106;3.684;2022-09-01T07:35:00;101954.96;;;20.52;65.74
22775;BME280;11554;51.106;3.684;2022-09-01T07:40:00;101954.26999999999;;;21.10;65.04
22775;BME280;11554;51.106;3.684;2022-09-01T07:45:00;101959.02;;;21.12;63.53
22775;BME280;11554;51.106;3.684;2022-09-01T07:50:00;101958.33;;;21.15;65.13
22775;BME280;11554;51.106;3.684;2022-09-01T07:55:00;101955.1;;;21.70;63.57
22775;BME280;11554;51.106;3.684;2022-09-01T08:00:00;101950.34000000001;;;21.83;62.83
22775;BME280;11554;51.106;3.684;2022-09-01T08:05:00;101951.15;;;22.17;63.19
22775;BME280;11554;51.106;3.684;2022-09-01T08:10:00;101950.34000000001;;;22.05;63.58
22775;BME280;11554;51.106;3.684;2022-09-01T08:15:00;101948.67;;;22.23;61.79
22775;BME280;11554;51.106;3.684;2022-09-01T08:20:00;101950.84000000001;;;22.46;62.34
22775;BME280;11554;51.106;3.684;2022-09-01T08:25:00;101950.3;;;22.84;61.07
22775;BME280;11554;51.106;3.684;2022-09-01T08:30:00;101953.12;;;23.44;61.47
22775;BME280;11554;51.106;3.684;2022-09-01T08:35:00;101949.55;;;23.74;60.29
22775;BME280;11554;51.106;3.684;2022-09-01T08:40:00;101950.07;;;23.28;60.82
22775;BME280;11554;51.106;3.684;2022-09-01T08:45:01;101949.48000000001;;;23.40;60.66
22775;BME280;11554;51.106;3.684;2022-09-01T08:50:00;101947.73;;;23.94;60.22
22775;BME280;11554;51.106;3.684;2022-09-01T08:55:03;101943.92;;;23.58;59.21
22775;BME280;11554;51.106;3.684;2022-09-01T09:00:00;101941.3;;;23.30;60.97
22775;BME280;11554;51.106;3.684;2022-09-01T09:05:03;101935.05;;;24.17;59.58
22775;BME280;11554;51.106;3.684;2022-09-01T09:10:02;101936.21;;;24.30;58.66
22775;BME280;11554;51.106;3.684;2022-09-01T09:15:04;101937.47;;;24.53;58.7
22775;BME280;11554;51.106;3.684;2022-09-01T09:20:00;101930.97;;;24.61;59.1
22775;BME280;11554;51.106;3.684;2022-09-01T09:25:02;101928.54999999999;;;25.00;57.84
22775;BME280;11554;51.106;3.684;2022-09-01T09:30:00;101934.01;;;25.02;57.43
22775;BME280;11554;51.106;3.684;2022-09-01T09:35:01;101931.05;;;25.13;56.61
22775;BME280;11554;51.106;3.684;2022-09-01T09:40:04;101923.65999999999;;;25.33;56.56
22775;BME280;11554;51.106;3.684;2022-09-01T09:45:00;101915.73;;;25.46;55.78
22775;BME280;11554;51.106;3.684;2022-09-01T09:50:09;101906.89;;;25.38;56.65
22775;BME280;11554;51.106;3.684;2022-09-01T09:55:01;101900.62000000001;;;25.60;56.75
22775;BME280;11554;51.106;3.684;2022-09-01T10:00:00;101892.38;;;26.06;54.93
22775;BME280;11554;51.106;3.684;2022-09-01T10:05:00;101898.36;;;25.83;54.25
22775;BME280;11554;51.106;3.684;2022-09-01T10:10:02;101882.67;;;26.09;56.38
22775;BME280;11554;51.106;3.684;2022-09-01T10:15:02;101884.3;;;26.26;54.15
22775;BME280;11554;51.106;3.684;2022-09-01T10:20:02;101883.47;;;26.60;54.88
22775;BME280;11554;51.106;3.684;2022-09-01T10:25:00;101877.55;;;27.32;52.46
22775;BME280;11554;51.106;3.684;2022-09-01T10:30:03;101875.11;;;27.54;50.43
22775;BME280;11554;51.106;3.684;2022-09-01T10:35:00;101878.62;;;27.45;50.3
22775;BME280;11554;51.106;3.684;2022-09-01T10:45:00;101875.22;;;27.64;49.42
22775;BME280;11554;51.106;3.684;2022-09-01T10:50:01;101870.78;;;27.93;51.03
22775;BME280;11554;51.106;3.684;2022-09-01T10:55:00;101873.1;;;27.47;48.93
22775;BME280;11554;51.106;3.684;2022-09-01T11:15:00;101852.76;;;27.68;49.64
22775;BME280;11554;51.106;3.684;2022-09-01T11:20:02;101851.19;;;27.51;49.82
22775;BME280;11554;51.106;3.684;2022-09-01T11:30:01;101848.33;;;28.21;48.15
22775;BME280;11554;51.106;3.684;2022-09-01T11:35:00;101847.33;;;28.88;47.05
22775;BME280;11554;51.106;3.684;2022-09-01T11:40:01;101854.22;;;28.94;47.14
22775;BME280;11554;51.106;3.684;2022-09-01T11:45:01;101843.87000000001;;;29.25;46.86
22775;BME280;11554;51.106;3.684;2022-09-01T11:50:01;101847.67;;;29.11;47.18
22775;BME280;11554;51.106;3.684;2022-09-01T11:55:00;101838.28;;;29.37;47.09
22775;BME280;11554;51.106;3.684;2022-09-01T12:00:00;101833.67;;;29.05;46.3
22775;BME280;11554;51.106;3.684;2022-09-01T12:05:00;101834.06;;;28.82;47.28
22775;BME280;11554;51.106;3.684;2022-09-01T12:10:00;101836.84;;;28.93;46.02
22775;BME280;11554;51.106;3.684;2022-09-01T12:15:01;101828.59;;;28.87;46.2
22775;BME280;11554;51.106;3.684;2022-09-01T12:25:00;101814.77;;;29.77;45.92
22775;BME280;11554;51.106;3.684;2022-09-01T12:30:00;101822.69;;;28.48;46.7
22775;BME280;11554;51.106;3.684;2022-09-01T12:35:00;101823.24;;;28.88;47.39
22775;BME280;11554;51.106;3.684;2022-09-01T12:40:00;101816.54999999999;;;30.16;45.93
22775;BME280;11554;51.106;3.684;2022-09-01T12:45:00;101816.76999999999;;;30.09;44.94
22775;BME280;11554;51.106;3.684;2022-09-01T12:50:00;101817.97;;;30.67;43.86
22775;BME280;11554;51.106;3.684;2022-09-01T12:55:10;101818.58;;;28.47;44.65
22775;BME280;11554;51.106;3.684;2022-09-01T13:00:08;101810.08;;;28.02;45.64
22775;BME280;11554;51.106;3.684;2022-09-01T13:10:00;101802.53;;;29.64;43.64
22775;BME280;11554;51.106;3.684;2022-09-01T13:15:00;101803.92;;;29.71;43.52
22775;BME280;11554;51.106;3.684;2022-09-01T13:20:00;101802.54;;;29.41;44.04
22775;BME280;11554;51.106;3.684;2022-09-01T13:25:00;101793.34;;;29.67;42.79
22775;BME280;11554;51.106;3.684;2022-09-01T13:30:00;101797.75;;;29.61;43.72
22775;BME280;11554;51.106;3.684;2022-09-01T13:35:00;101800.98000000001;;;29.02;43.42
22775;BME280;11554;51.106;3.684;2022-09-01T13:40:00;101792.48999999999;;;28.80;43.61
22775;BME280;11554;51.106;3.684;2022-09-01T13:45:00;101783.87;;;30.03;44.02
22775;BME280;11554;51.106;3.684;2022-09-01T13:50:00;101775.59;;;30.15;41.92
22775;BME280;11554;51.106;3.684;2022-09-01T13:55:00;101778.98;;;28.49;44.03
22775;BME280;11554;51.106;3.684;2022-09-01T14:00:00;101768.69;;;27.55;45.38
22775;BME280;11554;51.106;3.684;2022-09-01T14:05:00;101760.83;;;27.27;46.88
22775;BME280;11554;51.106;3.684;2022-09-01T14:10:00;101760.35;;;28.09;45.17
22775;BME280;11554;51.106;3.684;2022-09-01T14:15:00;101756.6;;;27.27;45.31
22775;BME280;11554;51.106;3.684;2022-09-01T14:20:00;101755.58;;;27.40;46.18
22775;BME280;11554;51.106;3.684;2022-09-01T14:25:00;101759.42;;;26.94;46.19
22775;BME280;11554;51.106;3.684;2022-09-01T14:30:00;101761.56999999999;;;27.04;46.14
22775;BME280;11554;51.106;3.684;2022-09-01T14:35:00;101755.40999999999;;;27.65;45.46
22775;BME280;11554;51.106;3.684;2022-09-01T14:40:00;101753.01;;;27.93;44.79
22775;BME280;11554;51.106;3.684;2022-09-01T14:45:00;101747.19;;;28.27;44.0
22775;BME280;11554;51.106;3.684;2022-09-01T14:50:00;101735.47;;;28.55;43.4
22775;BME280;11554;51.106;3.684;2022-09-01T14:55:00;101739.81;;;27.57;44.63
22775;BME280;11554;51.106;3.684;2022-09-01T15:00:00;101738.05;;;27.94;44.25
22775;BME280;11554;51.106;3.684;2022-09-01T15:05:00;101732.33;;;27.30;45.3
22775;BME280;11554;51.106;3.684;2022-09-01T15:10:00;101732.14;;;28.16;44.13
22775;BME280;11554;51.106;3.684;2022-09-01T15:15:00;101723.24;;;27.91;44.38
22775;BME280;11554;51.106;3.684;2022-09-01T15:20:00;101720.45000000001;;;27.70;44.38
22775;BME280;11554;51.106;3.684;2022-09-01T15:25:00;101720.29;;;27.81;44.5
22775;BME280;11554;51.106;3.684;2022-09-01T15:30:00;101725.73;;;27.66;43.74
22775;BME280;11554;51.106;3.684;2022-09-01T15:35:00;101729.16;;;27.38;43.86
22775;BME280;11554;51.106;3.684;2022-09-01T15:40:00;101717.07;;;27.39;43.81
22775;BME280;11554;51.106;3.684;2022-09-01T15:45:00;101708.11;;;27.16;44.34
22775;BME280;11554;51.106;3.684;2022-09-01T15:50:00;101702.22;;;26.95;45.13
22775;BME280;11554;51.106;3.684;2022-09-01T15:55:01;101704.66;;;27.17;45.37
22775;BME280;11554;51.106;3.684;2022-09-01T16:00:00;101700.58;;;26.98;45.57
22775;BME280;11554;51.106;3.684;2022-09-01T16:05:00;101699.97;;;27.00;45.49
22775;BME280;11554;51.106;3.684;2022-09-01T16:10:00;101697.45;;;27.16;45.43
22775;BME280;11554;51.106;3.684;2022-09-01T16:15:00;101696.95;;;26.97;45.03
22775;BME280;11554;51.106;3.684;2022-09-01T16:20:01;101691.83;;;26.80;45.25
22775;BME280;11554;51.106;3.684;2022-09-01T16:25:00;101682.72;;;26.33;45.31
22775;BME280;11554;51.106;3.684;2022-09-01T16:30:01;101685.12;;;26.28;45.39
22775;BME280;11554;51.106;3.684;2022-09-01T16:35:00;101679.94;;;25.85;46.47
22775;BME280;11554;51.106;3.684;2022-09-01T16:40:02;101678.2;;;25.92;46.13
22775;BME280;11554;51.106;3.684;2022-09-01T16:45:02;101672.40000000001;;;25.81;45.21
22775;BME280;11554;51.106;3.684;2022-09-01T16:50:03;101672.85;;;25.72;45.65
22775;BME280;11554;51.106;3.684;2022-09-01T16:55:05;101667.62999999999;;;25.49;46.39
22775;BME280;11554;51.106;3.684;2022-09-01T17:00:00;101665.22;;;25.40;47.27
22775;BME280;11554;51.106;3.684;2022-09-01T17:05:02;101664.89;;;25.00;47.01
22775;BME280;11554;51.106;3.684;2022-09-01T17:10:02;101662.91;;;24.78;47.32
22775;BME280;11554;51.106;3.684;2022-09-01T17:15:01;101657.95000000001;;;24.62;47.49
22775;BME280;11554;51.106;3.684;2022-09-01T17:20:00;101655.4;;;24.47;47.62
22775;BME280;11554;51.106;3.684;2022-09-01T17:25:01;101657.7;;;24.25;48.03
22775;BME280;11554;51.106;3.684;2022-09-01T17:30:00;101657.51000000001;;;24.04;48.24
22775;BME280;11554;51.106;3.684;2022-09-01T17:35:03;101660.78;;;23.89;48.71
22775;BME280;11554;51.106;3.684;2022-09-01T17:40:02;101659.48;;;23.71;48.83
22775;BME280;11554;51.106;3.684;2022-09-01T17:45:03;101661.17;;;23.56;49.48
22775;BME280;11554;51.106;3.684;2022-09-01T17:50:02;101664.72;;;23.39;49.57
22775;BME280;11554;51.106;3.684;2022-09-01T17:55:02;101668.7;;;23.25;50.01
22775;BME280;11554;51.106;3.684;2022-09-01T18:00:04;101668.69;;;23.09;50.02
22775;BME280;11554;51.106;3.684;2022-09-01T18:05:02;101669.37000000001;;;22.93;50.52
22775;BME280;11554;51.106;3.684;2022-09-01T18:10:01;101666.28;;;22.72;50.91
22775;BME280;11554;51.106;3.684;2022-09-01T18:15:01;101668.02;;;22.56;51.17
22775;BME280;11554;51.106;3.684;2022-09-01T18:20:03;101669.94;;;22.33;51.56
22775;BME280;11554;51.106;3.684;2022-09-01T18:25:02;101673.36;;;22.14;51.9
22775;BME280;11554;51.106;3.684;2022-09-01T18:30:00;101676.62;;;21.94;52.3
22775;BME280;11554;51.106;3.684;2022-09-01T18:35:04;101679.42;;;21.66;53.53
22775;BME280;11554;51.106;3.684;2022-09-01T18:40:02;101686.19;;;21.38;54.37
22775;BME280;11554;51.106;3.684;2022-09-01T18:45:02;101683.54000000001;;;21.08;55.07
22775;BME280;11554;51.106;3.684;2022-09-01T18:50:02;101682.29;;;20.86;55.81
22775;BME280;11554;51.106;3.684;2022-09-01T18:55:01;101679.44;;;20.65;56.67
22775;BME280;11554;51.106;3.684;2022-09-01T19:00:04;101682.9;;;20.47;57.44
22775;BME280;11554;51.106;3.684;2022-09-01T19:05:01;101680.31;;;20.26;57.63
22775;BME280;11554;51.106;3.684;2022-09-01T19:10:01;101680.1;;;20.07;58.08
22775;BME280;11554;51.106;3.684;2022-09-01T19:15:03;101679.90999999999;;;19.91;58.81
22775;BME280;11554;51.106;3.684;2022-09-01T19:20:02;101685.55;;;19.76;59.18
22775;BME280;11554;51.106;3.684;2022-09-01T19:25:02;101691.45999999999;;;19.68;59.52
22775;BME280;11554;51.106;3.684;2022-09-01T19:30:00;101694.04;;;19.55;59.49
22775;BME280;11554;51.106;3.684;2022-09-01T19:35:04;101691.53;;;19.48;59.74
22775;BME280;11554;51.106;3.684;2022-09-01T19:40:00;101688.81;;;19.33;60.19
22775;BME280;11554;51.106;3.684;2022-09-01T19:45:01;101690.95;;;19.18;60.62
22775;BME280;11554;51.106;3.684;2022-09-01T19:50:03;101690.01;;;19.09;61.19
22775;BME280;11554;51.106;3.684;2022-09-01T19:55:00;101688.49;;;18.99;61.33
22775;BME280;11554;51.106;3.684;2022-09-01T20:00:03;101685.02;;;18.87;61.47
22775;BME280;11554;51.106;3.684;2022-09-01T20:05:03;101682.87;;;18.78;62.34
22775;BME280;11554;51.106;3.684;2022-09-01T20:10:14;101681.69;;;18.66;62.18
22775;BME280;11554;51.106;3.684;2022-09-01T20:15:06;101680.55;;;18.57;62.58
22775;BME280;11554;51.106;3.684;2022-09-01T20:20:02;101680.31;;;18.44;63.14
22775;BME280;11554;51.106;3.684;2022-09-01T20:25:01;101680.74;;;18.36;63.17
22775;BME280;11554;51.106;3.684;2022-09-01T20:30:01;101679.96;;;18.28;63.61
22775;BME280;11554;51.106;3.684;2022-09-01T20:35:02;101675.23;;;18.17;63.82
22775;BME280;11554;51.106;3.684;2022-09-01T20:40:03;101670.97;;;18.10;63.47
22775;BME280;11554;51.106;3.684;2022-09-01T20:45:02;101668.62999999999;;;18.08;63.87
22775;BME280;11554;51.106;3.684;2022-09-01T20:50:00;101664.51;;;18.02;63.93
22775;BME280;11554;51.106;3.684;2022-09-01T20:55:06;101660.26000000001;;;17.97;64.16
22775;BME280;11554;51.106;3.684;2022-09-01T21:00:03;101657.81;;;17.92;64.4
22775;BME280;11554;51.106;3.684;2022-09-01T21:05:02;101655.96;;;17.86;64.51
22775;BME280;11554;51.106;3.684;2022-09-01T21:10:03;101654.81999999999;;;17.83;64.77
22775;BME280;11554;51.106;3.684;2022-09-01T21:15:02;101650.69;;;17.78;65.2
22775;BME280;11554;51.106;3.684;2022-09-01T21:20:02;101651.54;;;17.79;65.41
22775;BME280;11554;51.106;3.684;2022-09-01T21:25:00;101642.03;;;17.74;65.56
22775;BME280;11554;51.106;3.684;2022-09-01T21:30:01;101632.28;;;17.70;65.95
22775;BME280;11554;51.106;3.684;2022-09-01T21:35:00;101633.81000000001;;;17.67;65.88
22775;BME280;11554;51.106;3.684;2022-09-01T21:40:00;101627.12;;;17.59;66.24
22775;BME280;11554;51.106;3.684;2022-09-01T21:45:00;101627.78;;;17.58;66.67
22775;BME280;11554;51.106;3.684;2022-09-01T21:50:00;101628.05;;;17.50;66.53
22775;BME280;11554;51.106;3.684;2022-09-01T21:55:00;101625.0;;;17.43;66.69
22775;BME280;11554;51.106;3.684;2022-09-01T22:00:00;101625.03;;;17.36;67.33
22775;BME280;11554;51.106;3.684;2022-09-01T22:05:00;101623.11;;;17.32;67.75
22775;BME280;11554;51.106;3.684;2022-09-01T22:10:00;101619.64;;;17.31;67.95
22775;BME280;11554;51.106;3.684;2022-09-01T22:15:00;101614.59;;;17.27;68.2
22775;BME280;11554;51.106;3.684;2022-09-01T22:20:00;101610.35;;;17.18;68.59
22775;BME280;11554;51.106;3.684;2022-09-01T22:25:02;101609.25;;;17.16;68.32
22775;BME280;11554;51.106;3.684;2022-09-01T22:30:00;101606.06;;;17.09;69.2
22775;BME280;11554;51.106;3.684;2022-09-01T22:35:00;101603.94;;;17.04;69.55
22775;BME280;11554;51.106;3.684;2022-09-01T22:40:00;101602.25;;;17.01;69.81
22775;BME280;11554;51.106;3.684;2022-09-01T22:45:00;101604.22;;;16.93;70.28
22775;BME280;11554;51.106;3.684;2022-09-01T22:50:00;101599.51;;;16.85;70.81
22775;BME280;11554;51.106;3.684;2022-09-01T22:55:00;101592.83;;;16.78;70.82
22775;BME280;11554;51.106;3.684;2022-09-01T23:00:00;101588.12000000001;;;16.74;70.57
22775;BME280;11554;51.106;3.684;2022-09-01T23:05:00;101583.03;;;16.78;70.44
22775;BME280;11554;51.106;3.684;2022-09-01T23:10:00;101580.11;;;16.86;69.79
22775;BME280;11554;51.106;3.684;2022-09-01T23:15:00;101579.92;;;16.99;69.18
22775;BME280;11554;51.106;3.684;2022-09-01T23:20:00;101578.81;;;16.97;68.57
22775;BME280;11554;51.106;3.684;2022-09-01T23:25:00;101576.39;;;17.03;68.19
22775;BME280;11554;51.106;3.684;2022-09-01T23:30:00;101571.86;;;17.15;67.22
22775;BME280;11554;51.106;3.684;2022-09-01T23:35:00;101565.85;;;17.19;67.28
22775;BME280;11554;51.106;3.684;2022-09-01T23:40:00;101563.61;;;17.15;67.37
22775;BME280;11554;51.106;3.684;2022-09-01T23:45:00;101547.43999999999;;;17.17;67.62
22775;BME280;11554;51.106;3.684;2022-09-01T23:50:00;101551.05;;;17.10;67.55
22775;BME280;11554;51.106;3.684;2022-09-01T23:55:00;101543.48;;;17.11;67.68
